Time;durP1;ratioP1;P1;durP2;ratioP2;P2;SDS_P1;SDS_P2;PMS_P1;PMS_P2;Temp;Humidity;BMP_temperature;BMP_pressure;BME280_temperature;BME280_humidity;BME280_pressure;Samples;Min_cycle;Max_cycle;Signal;HPM_P1;HPM_P2
2023/03/02 00:02:21;;;;;;;11.60;8.80;;;5.00;80.90;;;;;;4917097;29;20174;-84
2023/03/02 00:04:56;;;;;;;13.45;8.88;;;5.10;80.50;;;;;;4916142;29;20190;-84
2023/03/02 00:07:32;;;;;;;13.55;11.20;;;5.00;80.50;;;;;;4917163;29;20213;-85
2023/03/02 00:09:58;;;;;;;10.60;9.20;;;5.00;80.70;;;;;;4915778;29;20193;-85
2023/03/02 00:12:27;;;;;;;13.73;9.00;;;5.00;80.70;;;;;;4917045;29;20175;-84
2023/03/02 00:14:53;;;;;;;11.00;8.60;;;5.10;80.80;;;;;;4916306;29;20198;-84
2023/03/02 00:17:26;;;;;;;13.45;8.70;;;5.20;80.70;;;;;;4916308;29;20214;-84
2023/03/02 00:19:53;;;;;;;10.90;9.05;;;5.10;80.70;;;;;;4916053;29;20249;-84
2023/03/02 00:22:20;;;;;;;9.55;8.55;;;5.20;80.30;;;;;;4915533;29;20178;-84
2023/03/02 00:24:46;;;;;;;13.77;8.53;;;5.30;80.00;;;;;;4916216;29;20322;-84
2023/03/02 00:27:11;;;;;;;10.27;9.13;;;5.40;80.00;;;;;;4915309;29;20599;-84
2023/03/02 00:29:37;;;;;;;12.50;9.63;;;5.40;79.00;;;;;;4915644;29;20186;-84
2023/03/02 00:32:03;;;;;;;13.53;9.73;;;5.30;78.80;;;;;;4914300;29;20179;-83
2023/03/02 00:34:32;;;;;;;11.60;9.13;;;5.30;78.70;;;;;;4899071;29;20194;-84
2023/03/02 00:36:58;;;;;;;12.40;9.20;;;5.40;78.80;;;;;;4915545;29;20708;-83
2023/03/02 00:39:24;;;;;;;13.60;8.80;;;5.50;78.60;;;;;;4916712;29;20254;-84
2023/03/02 00:41:50;;;;;;;11.37;9.40;;;5.40;78.70;;;;;;4914255;29;20278;-83
2023/03/02 00:44:18;;;;;;;11.43;8.67;;;5.50;79.10;;;;;;4914149;29;20524;-83
2023/03/02 00:46:44;;;;;;;10.60;8.55;;;5.50;79.00;;;;;;4915469;29;20527;-83
2023/03/02 00:49:11;;;;;;;9.32;8.15;;;5.60;79.10;;;;;;4915690;29;20575;-83
2023/03/02 00:51:39;;;;;;;9.70;8.52;;;5.60;79.10;;;;;;4914990;29;20190;-81
2023/03/02 00:54:05;;;;;;;10.65;8.13;;;5.60;78.60;;;;;;4915935;29;20188;-81
2023/03/02 00:56:31;;;;;;;11.10;8.77;;;5.60;78.40;;;;;;4915770;29;20183;-81
2023/03/02 00:58:57;;;;;;;13.07;8.80;;;5.60;78.80;;;;;;4914448;29;20249;-81
2023/03/02 01:01:22;;;;;;;10.70;8.37;;;5.60;79.20;;;;;;4915456;29;20405;-81
2023/03/02 01:03:48;;;;;;;13.57;9.07;;;5.50;79.00;;;;;;4916382;29;20471;-82
2023/03/02 01:06:19;;;;;;;9.60;8.03;;;5.50;79.00;;;;;;4915087;29;20215;-82
2023/03/02 01:08:45;;;;;;;10.43;8.07;;;5.50;79.70;;;;;;4915422;29;20232;-82
2023/03/02 01:11:16;;;;;;;12.93;8.23;;;5.50;79.70;;;;;;4915295;29;20214;-82
2023/03/02 01:13:43;;;;;;;13.25;8.60;;;5.40;79.70;;;;;;4916024;29;20186;-82
2023/03/02 01:16:09;;;;;;;10.20;8.00;;;5.30;80.30;;;;;;4915026;29;20190;-82
2023/03/02 01:18:37;;;;;;;11.57;8.80;;;5.40;80.90;;;;;;4916325;29;20182;-82
2023/03/02 01:21:06;;;;;;;11.43;8.95;;;5.30;81.00;;;;;;4913699;29;20190;-82
2023/03/02 01:23:32;;;;;;;10.60;8.57;;;5.50;81.30;;;;;;4915488;29;20194;-82
2023/03/02 01:25:58;;;;;;;13.07;9.20;;;5.10;81.20;;;;;;4915907;29;20201;-82
2023/03/02 01:28:24;;;;;;;12.13;8.77;;;5.10;81.90;;;;;;4916128;29;20469;-82
2023/03/02 01:30:50;;;;;;;11.70;9.83;;;5.00;82.40;;;;;;4915559;29;20898;-82
2023/03/02 01:33:16;;;;;;;9.40;7.88;;;5.00;83.30;;;;;;4913400;29;20661;-82
2023/03/02 01:35:45;;;;;;;11.67;9.07;;;5.00;83.00;;;;;;4914869;29;20182;-82
2023/03/02 01:38:11;;;;;;;12.25;8.85;;;5.00;83.50;;;;;;4914843;29;20274;-81
2023/03/02 01:40:36;;;;;;;12.43;9.70;;;4.90;83.50;;;;;;4915424;29;20206;-81
2023/03/02 01:43:03;;;;;;;13.87;9.23;;;5.00;83.80;;;;;;4915306;29;20834;-81
2023/03/02 01:45:46;;;;;;;11.48;9.63;;;4.90;84.00;;;;;;4915173;29;20194;-81
2023/03/02 01:48:16;;;;;;;11.27;8.23;;;4.80;84.30;;;;;;4914182;29;20229;-81
2023/03/02 01:50:42;;;;;;;11.45;8.40;;;4.80;86.60;;;;;;4914744;29;20306;-81
2023/03/02 01:53:08;;;;;;;11.97;7.70;;;4.80;85.40;;;;;;4913635;29;20675;-81
2023/03/02 01:55:35;;;;;;;10.73;8.57;;;5.10;85.70;;;;;;4914047;29;20706;-81
2023/03/02 01:58:03;;;;;;;11.68;8.13;;;4.80;85.70;;;;;;4914474;29;20670;-81
2023/03/02 02:00:34;;;;;;;14.77;9.00;;;4.80;86.40;;;;;;4916075;29;20608;-81
2023/03/02 02:03:10;;;;;;;13.40;9.98;;;4.90;86.90;;;;;;4915522;29;20205;-81
2023/03/02 02:05:38;;;;;;;12.50;9.32;;;5.00;87.30;;;;;;4914920;29;20226;-81
2023/03/02 02:08:04;;;;;;;9.82;8.30;;;4.90;86.30;;;;;;4914246;29;20222;-81
2023/03/02 02:10:32;;;;;;;9.82;7.55;;;4.80;85.90;;;;;;4914594;29;20183;-81
2023/03/02 02:12:57;;;;;;;9.45;8.45;;;4.70;85.30;;;;;;4914955;29;20580;-81
2023/03/02 02:15:23;;;;;;;10.23;8.27;;;5.30;85.70;;;;;;4918690;29;20326;-82
2023/03/02 02:17:50;;;;;;;9.33;7.60;;;4.70;85.00;;;;;;4919268;29;20318;-82
2023/03/02 02:20:36;;;;;;;9.52;8.10;;;4.70;84.90;;;;;;4918543;29;20410;-82
2023/03/02 02:23:18;;;;;;;9.50;8.50;;;4.60;84.80;;;;;;4919227;29;20634;-82
2023/03/02 02:25:52;;;;;;;9.32;7.70;;;4.60;84.00;;;;;;4919166;29;20179;-82
2023/03/02 02:28:31;;;;;;;12.88;8.10;;;4.40;83.30;;;;;;4917589;29;20218;-82
2023/03/02 02:31:16;;;;;;;9.57;7.95;;;4.30;84.00;;;;;;4918345;29;20214;-82
2023/03/02 02:33:48;;;;;;;10.00;8.75;;;4.30;84.60;;;;;;4919057;29;20222;-82
2023/03/02 02:36:24;;;;;;;11.93;9.00;;;4.30;84.30;;;;;;4917680;29;20182;-82
2023/03/02 02:38:53;;;;;;;9.60;8.55;;;4.00;85.00;;;;;;4918218;29;20275;-82
2023/03/02 02:41:29;;;;;;;11.48;8.65;;;4.10;86.50;;;;;;4917463;29;20196;-82
2023/03/02 02:44:02;;;;;;;8.07;7.20;;;4.00;86.70;;;;;;4917509;29;20589;-81
2023/03/02 02:46:28;;;;;;;9.00;7.78;;;4.10;86.60;;;;;;4918732;29;20223;-82
2023/03/02 02:48:54;;;;;;;9.80;8.00;;;4.20;86.10;;;;;;4918265;29;20222;-82
2023/03/02 02:51:24;;;;;;;11.03;8.23;;;4.30;85.80;;;;;;4918011;29;20182;-81
2023/03/02 02:53:59;;;;;;;13.00;8.73;;;4.80;85.00;;;;;;4899982;29;20207;-82
2023/03/02 02:56:35;;;;;;;8.35;7.30;;;5.10;85.10;;;;;;4911902;29;20186;-82
2023/03/02 02:59:12;;;;;;;10.30;8.30;;;4.30;83.80;;;;;;4918113;29;20194;-82
2023/03/02 03:01:38;;;;;;;11.50;9.02;;;4.10;84.00;;;;;;4917822;29;20166;-82
2023/03/02 03:04:05;;;;;;;10.82;8.00;;;4.30;84.40;;;;;;4918353;29;20175;-82
2023/03/02 03:06:41;;;;;;;10.40;7.93;;;3.90;85.00;;;;;;4917794;29;20273;-82
2023/03/02 03:09:10;;;;;;;9.40;8.27;;;3.70;85.40;;;;;;4917501;29;20240;-82
2023/03/02 03:11:39;;;;;;;10.00;8.95;;;3.70;86.40;;;;;;4917483;29;20190;-82
2023/03/02 03:14:15;;;;;;;10.15;8.27;;;3.90;86.70;;;;;;4917519;29;20195;-81
2023/03/02 03:16:43;;;;;;;9.07;8.15;;;4.00;86.50;;;;;;4931421;29;20273;-83
2023/03/02 03:19:29;;;;;;;8.68;7.50;;;4.00;86.40;;;;;;4916263;29;20326;-82
2023/03/02 03:21:58;;;;;;;11.85;8.77;;;4.10;86.30;;;;;;4917747;29;20545;-83
2023/03/02 03:24:25;;;;;;;10.85;8.27;;;4.20;86.30;;;;;;4916092;29;20528;-83
2023/03/02 03:26:50;;;;;;;10.98;7.85;;;4.60;87.00;;;;;;4917772;29;20213;-83
2023/03/02 03:29:17;;;;;;;9.63;8.60;;;4.10;86.40;;;;;;4917269;29;20596;-82
2023/03/02 03:31:43;;;;;;;10.30;8.25;;;4.50;86.40;;;;;;4918050;29;20498;-82
2023/03/02 03:34:10;;;;;;;10.90;7.95;;;4.30;85.70;;;;;;4916923;29;20230;-82
2023/03/02 03:36:36;;;;;;;10.30;8.65;;;4.40;85.50;;;;;;4917448;29;20179;-81
2023/03/02 03:39:04;;;;;;;11.10;8.33;;;4.30;84.80;;;;;;4917195;29;20334;-82
2023/03/02 03:41:30;;;;;;;14.57;9.38;;;4.40;84.70;;;;;;4916735;29;20296;-82
2023/03/02 03:43:56;;;;;;;9.73;8.73;;;4.40;84.90;;;;;;4917873;29;20265;-83
2023/03/02 03:46:22;;;;;;;8.30;7.43;;;4.50;84.90;;;;;;4917829;29;20435;-82
2023/03/02 03:48:48;;;;;;;9.00;7.87;;;4.40;84.90;;;;;;4917826;29;20490;-82
2023/03/02 03:51:14;;;;;;;11.73;8.70;;;4.40;84.40;;;;;;4917569;29;20229;-82
2023/03/02 03:53:40;;;;;;;9.18;7.97;;;4.40;83.50;;;;;;4920969;29;20182;-82
2023/03/02 03:56:06;;;;;;;10.30;7.83;;;4.60;83.60;;;;;;4920692;29;20194;-83
2023/03/02 03:58:32;;;;;;;11.25;8.85;;;4.50;83.10;;;;;;4922009;29;20206;-82
2023/03/02 04:00:58;;;;;;;9.37;8.20;;;5.00;84.00;;;;;;4924520;29;20638;-82
2023/03/02 04:03:27;;;;;;;11.15;8.85;;;4.50;83.70;;;;;;4919618;29;20194;-83
2023/03/02 04:05:53;;;;;;;13.13;9.38;;;4.50;84.70;;;;;;4920126;29;20189;-83
2023/03/02 04:08:19;;;;;;;10.57;8.70;;;4.60;84.90;;;;;;4915499;29;20214;-82
2023/03/02 04:10:44;;;;;;;10.88;8.25;;;4.50;85.10;;;;;;4917653;29;20182;-80
2023/03/02 04:13:10;;;;;;;11.30;8.53;;;4.60;84.90;;;;;;4916026;29;20650;-80
2023/03/02 04:15:36;;;;;;;13.53;8.60;;;4.50;85.20;;;;;;4916361;29;20190;-81
2023/03/02 04:18:02;;;;;;;10.75;9.02;;;4.50;84.90;;;;;;4917108;29;20506;-80
2023/03/02 04:20:28;;;;;;;10.80;8.47;;;4.50;85.60;;;;;;4914518;29;20238;-80
2023/03/02 04:22:55;;;;;;;10.40;8.35;;;4.40;85.40;;;;;;4915172;29;20194;-81
2023/03/02 04:25:24;;;;;;;10.50;8.27;;;4.50;85.10;;;;;;4915133;29;20277;-80
2023/03/02 04:27:51;;;;;;;8.65;7.55;;;4.40;85.00;;;;;;4916083;29;20572;-80
2023/03/02 04:30:20;;;;;;;10.93;7.82;;;4.40;84.70;;;;;;4915869;29;20185;-81
2023/03/02 04:32:46;;;;;;;11.75;8.35;;;4.40;84.30;;;;;;4916821;29;20178;-80
2023/03/02 04:35:12;;;;;;;7.53;6.73;;;4.30;84.00;;;;;;4915330;29;20197;-81
2023/03/02 04:37:39;;;;;;;10.43;7.10;;;4.40;84.20;;;;;;4916187;29;20441;-82
2023/03/02 04:40:07;;;;;;;8.40;7.55;;;4.30;84.10;;;;;;4916679;29;20414;-81
2023/03/02 04:42:32;;;;;;;8.63;7.75;;;4.20;84.20;;;;;;4910745;29;20222;-81
2023/03/02 04:44:58;;;;;;;16.00;8.50;;;4.20;84.20;;;;;;4931535;29;20194;-81
2023/03/02 04:47:24;;;;;;;10.00;7.90;;;4.30;84.10;;;;;;4916128;29;20242;-81
2023/03/02 04:49:53;;;;;;;10.60;8.20;;;4.30;83.70;;;;;;4917704;29;20262;-82
2023/03/02 04:52:20;;;;;;;10.00;8.32;;;4.20;83.30;;;;;;4915892;29;20277;-82
2023/03/02 04:54:46;;;;;;;9.20;7.40;;;4.70;83.80;;;;;;4916237;29;20521;-82
2023/03/02 04:57:12;;;;;;;8.13;7.32;;;4.40;83.10;;;;;;4915666;29;20635;-81
2023/03/02 04:59:38;;;;;;;9.97;7.77;;;4.20;82.40;;;;;;4917115;29;20238;-81
2023/03/02 05:02:04;;;;;;;10.30;7.07;;;3.90;83.00;;;;;;4916445;29;20190;-82
2023/03/02 05:04:31;;;;;;;9.68;7.68;;;3.70;83.90;;;;;;4916562;29;20334;-81
2023/03/02 05:06:57;;;;;;;12.00;8.90;;;3.60;84.50;;;;;;4916580;29;20224;-82
2023/03/02 05:09:26;;;;;;;7.90;7.20;;;3.60;85.40;;;;;;4916050;29;20547;-82
2023/03/02 05:11:56;;;;;;;9.35;8.10;;;3.60;85.60;;;;;;4916422;29;20191;-82
2023/03/02 05:14:23;;;;;;;10.60;7.20;;;3.70;85.70;;;;;;4916562;29;20286;-82
2023/03/02 05:16:49;;;;;;;8.80;6.57;;;3.80;85.40;;;;;;4916665;29;20230;-82
2023/03/02 05:19:15;;;;;;;10.03;8.60;;;3.90;85.30;;;;;;4916457;29;20535;-82
2023/03/02 05:21:41;;;;;;;12.57;7.40;;;3.70;84.70;;;;;;4917141;29;20208;-82
2023/03/02 05:24:07;;;;;;;8.10;6.90;;;3.70;85.00;;;;;;4915677;29;20324;-82
2023/03/02 05:26:32;;;;;;;9.20;6.93;;;3.60;85.10;;;;;;4916007;29;20492;-82
2023/03/02 05:28:58;;;;;;;11.77;9.43;;;3.40;85.60;;;;;;4916477;29;20209;-82
2023/03/02 05:31:35;;;;;;;10.10;8.23;;;3.20;86.40;;;;;;4915215;29;20185;-81
2023/03/02 05:34:03;;;;;;;8.88;7.63;;;3.30;87.60;;;;;;4914601;29;20281;-82
2023/03/02 05:36:29;;;;;;;8.60;7.57;;;4.00;87.90;;;;;;4916306;29;20182;-82
2023/03/02 05:38:55;;;;;;;10.93;7.67;;;3.40;87.60;;;;;;4931576;29;20286;-82
2023/03/02 05:41:20;;;;;;;8.40;7.37;;;3.50;87.30;;;;;;4914385;29;20521;-82
2023/03/02 05:43:46;;;;;;;11.77;9.70;;;3.60;86.80;;;;;;4914780;29;20610;-82
2023/03/02 05:46:12;;;;;;;9.27;8.37;;;3.70;86.40;;;;;;4913795;29;20185;-81
2023/03/02 05:48:38;;;;;;;10.10;9.17;;;3.80;86.50;;;;;;4918278;29;20506;-82
2023/03/02 05:51:04;;;;;;;11.10;7.63;;;3.80;86.10;;;;;;4914056;29;20824;-82
2023/03/02 05:53:30;;;;;;;9.55;7.65;;;3.90;85.90;;;;;;4917053;29;20182;-82
2023/03/02 05:55:55;;;;;;;10.03;9.10;;;3.90;85.60;;;;;;4917325;29;20201;-81
2023/03/02 05:58:21;;;;;;;10.00;8.50;;;3.90;85.60;;;;;;4917085;29;20190;-82
2023/03/02 06:00:47;;;;;;;9.80;8.00;;;3.90;85.50;;;;;;4917948;29;20182;-81
2023/03/02 06:03:14;;;;;;;10.23;9.32;;;3.90;84.70;;;;;;4917782;29;20245;-82
2023/03/02 06:05:40;;;;;;;9.55;8.60;;;4.10;84.80;;;;;;4915769;29;20665;-82
2023/03/02 06:08:06;;;;;;;10.63;8.33;;;3.30;85.00;;;;;;4917846;29;20214;-81
2023/03/02 06:10:31;;;;;;;9.70;6.83;;;3.90;86.90;;;;;;4918512;29;20429;-82
2023/03/02 06:12:57;;;;;;;12.47;8.33;;;3.20;86.50;;;;;;4919749;29;20623;-82
2023/03/02 06:15:23;;;;;;;8.60;7.73;;;3.00;87.30;;;;;;4915617;29;20444;-81
2023/03/02 06:17:48;;;;;;;11.07;9.10;;;3.60;88.60;;;;;;4918864;29;20182;-81
2023/03/02 06:20:15;;;;;;;9.67;8.67;;;3.10;88.50;;;;;;4919600;29;20637;-81
2023/03/02 06:22:45;;;;;;;8.63;7.32;;;4.60;89.70;;;;;;4919445;29;20193;-81
2023/03/02 06:25:14;;;;;;;10.40;7.90;;;3.50;87.90;;;;;;4919440;29;20185;-83
2023/03/02 06:27:40;;;;;;;10.73;7.95;;;3.60;87.10;;;;;;4918537;29;20217;-80
2023/03/02 06:30:09;;;;;;;8.77;6.90;;;3.80;86.80;;;;;;4916137;29;20218;-81
2023/03/02 06:32:35;;;;;;;8.52;7.32;;;3.90;86.60;;;;;;4916886;29;20551;-82
2023/03/02 06:35:02;;;;;;;11.70;7.90;;;3.90;86.00;;;;;;4918921;29;20185;-83
2023/03/02 06:37:29;;;;;;;10.00;8.80;;;4.00;85.10;;;;;;4918968;29;20187;-81
2023/03/02 06:39:56;;;;;;;11.23;9.23;;;4.50;84.30;;;;;;4917274;29;20198;-82
2023/03/02 06:42:22;;;;;;;11.13;7.90;;;4.00;83.90;;;;;;4915639;29;20226;-81
2023/03/02 06:44:48;;;;;;;11.38;9.82;;;4.10;84.30;;;;;;4918580;29;20186;-83
2023/03/02 06:47:14;;;;;;;11.03;10.00;;;4.10;84.80;;;;;;4921811;29;20229;-83
2023/03/02 06:49:39;;;;;;;9.30;8.40;;;4.40;85.10;;;;;;4930322;29;20173;-82
2023/03/02 06:52:06;;;;;;;11.03;8.47;;;4.10;84.50;;;;;;4934122;29;20189;-83
2023/03/02 06:54:32;;;;;;;14.98;8.65;;;4.10;84.30;;;;;;4929816;29;20242;-83
2023/03/02 06:56:58;;;;;;;10.05;8.90;;;4.60;84.70;;;;;;4926885;29;20182;-83
2023/03/02 06:59:24;;;;;;;11.10;7.85;;;4.10;83.60;;;;;;4930857;29;20178;-83
2023/03/02 07:01:50;;;;;;;14.73;8.67;;;4.20;84.00;;;;;;4929735;29;20201;-83
2023/03/02 07:04:16;;;;;;;8.73;7.80;;;4.20;84.40;;;;;;4925937;29;20506;-84
2023/03/02 07:06:42;;;;;;;9.70;8.80;;;4.20;83.90;;;;;;4919129;29;20195;-82
2023/03/02 07:09:08;;;;;;;10.93;8.80;;;4.70;84.00;;;;;;4917920;29;20214;-82
2023/03/02 07:11:33;;;;;;;9.97;8.50;;;4.30;83.30;;;;;;4917285;29;20201;-83
2023/03/02 07:14:00;;;;;;;11.53;8.93;;;4.30;82.90;;;;;;4917493;29;20413;-83
2023/03/02 07:16:26;;;;;;;8.88;7.75;;;4.30;83.10;;;;;;4917530;29;20455;-87
2023/03/02 07:18:52;;;;;;;11.77;9.27;;;4.30;83.30;;;;;;4933240;29;20186;-83
2023/03/02 07:21:17;;;;;;;10.33;8.90;;;4.50;83.40;;;;;;4918342;29;20973;-87
2023/03/02 07:23:43;;;;;;;13.00;11.90;;;4.50;84.80;;;;;;4917503;29;20183;-90
2023/03/02 07:26:09;;;;;;;11.40;8.60;;;5.00;93.20;;;;;;4918358;29;20265;-90
2023/03/02 07:28:38;;;;;;;11.40;9.07;;;5.80;90.70;;;;;;4917891;29;20528;-90
2023/03/02 07:31:05;;;;;;;10.73;8.90;;;6.50;87.70;;;;;;4917935;29;20190;-91
2023/03/02 07:33:32;;;;;;;11.67;9.93;;;7.20;88.50;;;;;;4917891;29;20518;-90
2023/03/02 07:36:04;;;;;;;10.70;9.63;;;8.30;81.20;;;;;;4915514;29;20448;-91
2023/03/02 07:38:29;;;;;;;9.00;8.10;;;8.10;94.70;;;;;;4916818;29;20453;-90
2023/03/02 07:40:55;;;;;;;10.20;9.17;;;8.70;87.80;;;;;;4916010;29;20482;-90
2023/03/02 07:43:24;;;;;;;9.37;8.07;;;9.30;82.90;;;;;;4917418;29;20232;-88
2023/03/02 07:45:50;;;;;;;10.40;9.37;;;9.30;73.00;;;;;;4916275;29;20218;-86
2023/03/02 07:48:15;;;;;;;10.00;9.10;;;9.00;67.40;;;;;;4917862;29;20490;-86
2023/03/02 07:50:41;;;;;;;9.30;8.50;;;8.40;66.40;;;;;;4916171;29;20311;-86
2023/03/02 07:53:07;;;;;;;12.63;11.00;;;8.10;66.50;;;;;;4916400;29;20192;-85
2023/03/02 07:55:33;;;;;;;8.60;7.80;;;7.70;67.60;;;;;;4912792;29;20188;-86
2023/03/02 07:57:58;;;;;;;9.90;8.90;;;7.40;68.80;;;;;;4909181;29;20426;-85
2023/03/02 08:00:24;;;;;;;8.70;7.67;;;7.60;70.20;;;;;;4897955;29;20293;-85
2023/03/02 08:02:50;;;;;;;8.67;7.50;;;7.00;70.10;;;;;;4916211;29;20192;-85
2023/03/02 08:05:16;;;;;;;10.17;8.90;;;6.70;71.20;;;;;;4916010;29;20274;-85
2023/03/02 08:07:42;;;;;;;8.77;7.83;;;6.50;74.00;;;;;;4916790;29;20265;-85
2023/03/02 08:10:09;;;;;;;9.20;8.30;;;6.40;74.80;;;;;;4915434;29;20525;-86
2023/03/02 08:12:35;;;;;;;8.43;7.10;;;6.30;74.90;;;;;;4914871;29;20198;-85
2023/03/02 08:15:01;;;;;;;10.70;9.60;;;6.20;74.70;;;;;;4916132;29;20195;-84
2023/03/02 08:17:26;;;;;;;8.43;7.60;;;6.10;76.30;;;;;;4915264;29;20207;-83
2023/03/02 08:19:52;;;;;;;9.17;8.20;;;6.00;74.80;;;;;;4915351;29;20203;-83
2023/03/02 08:22:18;;;;;;;10.07;9.13;;;6.00;85.50;;;;;;4916953;29;20710;-82
2023/03/02 08:24:44;;;;;;;9.93;7.90;;;6.10;78.40;;;;;;4915283;29;20238;-84
2023/03/02 08:27:14;;;;;;;10.60;9.17;;;6.10;78.70;;;;;;4909796;29;20254;-83
2023/03/02 08:29:40;;;;;;;12.23;9.10;;;6.10;76.80;;;;;;4896392;29;20184;-84
2023/03/02 08:32:06;;;;;;;9.40;7.70;;;6.10;76.60;;;;;;4912443;29;20417;-83
2023/03/02 08:34:32;;;;;;;11.45;8.98;;;6.00;75.60;;;;;;4916011;29;20426;-85
2023/03/02 08:36:58;;;;;;;9.73;8.73;;;6.00;75.40;;;;;;4915617;29;20269;-84
2023/03/02 08:39:24;;;;;;;11.07;9.00;;;5.90;78.10;;;;;;4916774;29;20449;-83
2023/03/02 08:41:53;;;;;;;10.55;7.53;;;5.90;76.60;;;;;;4916838;29;20419;-83
2023/03/02 08:44:22;;;;;;;10.93;7.85;;;5.90;77.50;;;;;;4916241;29;20587;-83
2023/03/02 08:46:49;;;;;;;12.07;9.60;;;6.60;77.80;;;;;;4915136;29;20187;-84
2023/03/02 08:49:16;;;;;;;10.18;8.32;;;6.40;78.40;;;;;;4915510;29;20218;-84
2023/03/02 08:51:42;;;;;;;11.55;8.40;;;6.00;81.50;;;;;;4914733;29;20239;-84
2023/03/02 08:54:09;;;;;;;8.70;7.80;;;6.80;79.80;;;;;;4915255;29;20275;-83
2023/03/02 08:56:36;;;;;;;9.03;7.50;;;6.20;77.30;;;;;;4912231;29;20203;-84
2023/03/02 08:59:05;;;;;;;10.40;9.00;;;6.40;82.00;;;;;;4880320;29;20523;-83
2023/03/02 09:01:33;;;;;;;10.00;9.02;;;6.40;77.40;;;;;;4908185;29;20528;-82
2023/03/02 09:04:00;;;;;;;9.70;8.80;;;6.80;76.30;;;;;;4914586;29;20332;-82
2023/03/02 09:06:28;;;;;;;9.57;8.63;;;6.50;76.00;;;;;;4914089;29;20439;-90
2023/03/02 09:08:54;;;;;;;9.63;8.60;;;6.50;77.20;;;;;;4916368;29;20223;-83
2023/03/02 09:11:20;;;;;;;9.60;8.60;;;6.70;75.90;;;;;;4916762;29;20426;-84
2023/03/02 09:13:46;;;;;;;9.00;8.10;;;6.80;74.10;;;;;;4914495;29;20724;-84
2023/03/02 09:16:12;;;;;;;9.30;8.50;;;6.80;73.40;;;;;;4915434;29;20846;-83
2023/03/02 09:18:38;;;;;;;10.20;7.80;;;7.10;73.60;;;;;;4915828;29;20520;-84
2023/03/02 09:21:04;;;;;;;8.30;7.60;;;7.00;73.10;;;;;;4915063;29;20479;-84
2023/03/02 09:23:31;;;;;;;8.60;7.83;;;7.10;71.60;;;;;;4919252;29;20416;-84
2023/03/02 09:25:57;;;;;;;8.50;7.77;;;7.20;73.30;;;;;;4919048;29;20418;-84
2023/03/02 09:28:26;;;;;;;10.00;9.00;;;7.30;70.10;;;;;;4920177;29;20467;-83
2023/03/02 09:30:57;;;;;;;10.20;8.40;;;7.10;69.40;;;;;;4920402;29;20417;-84
2023/03/02 09:33:27;;;;;;;9.90;8.77;;;7.30;70.30;;;;;;4920297;29;20412;-83
2023/03/02 09:35:53;;;;;;;9.73;8.73;;;7.60;69.50;;;;;;4914350;29;20943;-84
2023/03/02 09:38:19;;;;;;;10.83;9.00;;;7.90;70.00;;;;;;4901400;29;20423;-83
2023/03/02 09:41:08;;;;;;;9.40;8.50;;;8.20;68.60;;;;;;4900832;29;20182;-84
2023/03/02 09:43:46;;;;;;;8.90;8.00;;;8.40;67.90;;;;;;4914544;29;20475;-84
2023/03/02 09:46:35;;;;;;;8.67;7.97;;;8.60;67.20;;;;;;4899789;29;20420;-83
2023/03/02 09:49:35;;;;;;;9.53;8.63;;;8.60;66.60;;;;;;4888821;29;20570;-84
2023/03/02 09:52:30;;;;;;;9.23;8.23;;;9.00;65.30;;;;;;4899425;29;20891;-84
2023/03/02 09:55:00;;;;;;;12.03;9.60;;;9.40;62.60;;;;;;4915488;29;20442;-84
2023/03/02 09:57:33;;;;;;;10.00;9.00;;;9.60;62.40;;;;;;4900700;29;20416;-83
2023/03/02 10:00:11;;;;;;;10.37;9.37;;;9.90;62.00;;;;;;4901298;29;20415;-83
2023/03/02 10:02:49;;;;;;;10.40;9.30;;;10.20;60.50;;;;;;4919064;29;20414;-83
2023/03/02 10:05:20;;;;;;;10.33;9.33;;;10.60;58.90;;;;;;4917754;29;20855;-82
2023/03/02 10:07:47;;;;;;;10.97;9.83;;;10.90;60.10;;;;;;4918842;29;20454;-83
2023/03/02 10:10:26;;;;;;;11.00;9.80;;;11.10;59.00;;;;;;4919442;29;20410;-82
2023/03/02 10:13:10;;;;;;;9.03;8.27;;;11.40;58.70;;;;;;4902039;29;20461;-83
2023/03/02 10:15:45;;;;;;;10.33;9.23;;;11.70;56.80;;;;;;4916456;29;20446;-83
2023/03/02 10:18:22;;;;;;;9.50;8.70;;;12.10;55.40;;;;;;4918271;29;20427;-83
2023/03/02 10:21:12;;;;;;;9.77;8.80;;;12.30;55.80;;;;;;4917547;29;20511;-83
2023/03/02 10:23:44;;;;;;;10.03;9.10;;;12.40;56.80;;;;;;4918734;29;20802;-84
2023/03/02 10:26:42;;;;;;;8.80;7.90;;;12.60;55.00;;;;;;4918677;29;20471;-83
2023/03/02 10:29:31;;;;;;;11.23;10.13;;;12.70;53.60;;;;;;4902321;29;20463;-83
2023/03/02 10:32:19;;;;;;;10.60;9.60;;;12.80;54.20;;;;;;4902364;29;20799;-83
2023/03/02 10:34:46;;;;;;;10.00;9.00;;;12.80;53.60;;;;;;4900662;29;20421;-83
2023/03/02 10:37:23;;;;;;;9.87;8.60;;;12.80;52.60;;;;;;4918798;29;20420;-83
2023/03/02 10:39:56;;;;;;;10.73;9.37;;;12.90;52.30;;;;;;4917529;29;20430;-84
2023/03/02 10:42:34;;;;;;;9.50;8.50;;;13.10;54.20;;;;;;4901724;29;20468;-83
2023/03/02 10:45:28;;;;;;;10.20;9.13;;;13.40;54.90;;;;;;4918896;29;20424;-83
2023/03/02 10:48:08;;;;;;;9.80;8.87;;;13.40;52.80;;;;;;4918411;29;20454;-83
2023/03/02 10:50:35;;;;;;;8.83;8.00;;;13.40;52.80;;;;;;4918258;29;20825;-83
2023/03/02 10:53:01;;;;;;;9.60;8.40;;;13.50;52.40;;;;;;4918600;29;20452;-83
2023/03/02 10:55:27;;;;;;;9.10;8.10;;;13.50;51.10;;;;;;4918513;29;20425;-83
2023/03/02 10:58:05;;;;;;;10.27;9.33;;;13.80;51.60;;;;;;4917764;29;20476;-84
2023/03/02 11:00:32;;;;;;;10.63;9.13;;;14.00;52.40;;;;;;4920231;29;20410;-82
2023/03/02 11:03:02;;;;;;;9.97;8.97;;;14.40;51.40;;;;;;4901550;29;20467;-83
2023/03/02 11:05:33;;;;;;;9.57;8.67;;;14.70;50.40;;;;;;4918453;29;20424;-83
2023/03/02 11:08:02;;;;;;;9.80;8.90;;;14.80;52.40;;;;;;4917245;29;20467;-83
2023/03/02 11:10:33;;;;;;;9.40;8.40;;;14.80;50.20;;;;;;4917294;29;20431;-83
2023/03/02 11:13:01;;;;;;;10.30;9.30;;;14.50;49.40;;;;;;4918353;29;20438;-83
2023/03/02 11:15:44;;;;;;;9.70;8.70;;;14.50;50.80;;;;;;4918056;29;20486;-83
2023/03/02 11:18:19;;;;;;;9.40;8.50;;;14.80;49.50;;;;;;4917353;29;20422;-83
2023/03/02 11:20:48;;;;;;;9.30;8.60;;;15.00;50.80;;;;;;4916317;29;20405;-84
2023/03/02 11:23:29;;;;;;;10.13;9.23;;;15.20;48.80;;;;;;4917047;29;20451;-83
2023/03/02 11:26:12;;;;;;;11.57;8.70;;;15.10;48.00;;;;;;4916595;29;20459;-83
2023/03/02 11:29:06;;;;;;;10.60;9.70;;;15.00;48.00;;;;;;4917964;29;20445;-84
2023/03/02 11:32:07;;;;;;;9.83;8.90;;;15.10;47.50;;;;;;4897608;29;20435;-83
2023/03/02 11:34:49;;;;;;;9.70;8.90;;;15.10;46.70;;;;;;4910914;29;20434;-83
2023/03/02 11:37:18;;;;;;;8.73;7.93;;;15.00;46.10;;;;;;4916499;29;20439;-82
2023/03/02 11:39:46;;;;;;;8.80;8.00;;;15.10;47.40;;;;;;4917069;29;20420;-83
2023/03/02 11:42:25;;;;;;;8.53;7.73;;;15.20;46.00;;;;;;4915854;29;20581;-83
2023/03/02 11:44:51;;;;;;;8.80;7.50;;;15.20;46.40;;;;;;4916975;29;20412;-83
2023/03/02 11:47:18;;;;;;;9.20;8.30;;;15.10;46.40;;;;;;4917483;29;20439;-83
2023/03/02 11:49:53;;;;;;;10.67;8.13;;;15.00;46.80;;;;;;4915781;29;20418;-83
2023/03/02 11:52:23;;;;;;;9.30;8.43;;;15.10;46.80;;;;;;4916399;29;20447;-83
2023/03/02 11:55:03;;;;;;;7.57;6.87;;;15.00;46.70;;;;;;4916867;29;20420;-83
2023/03/02 11:57:36;;;;;;;7.87;7.13;;;15.20;47.60;;;;;;4917481;29;20404;-85
2023/03/02 12:00:09;;;;;;;7.60;6.90;;;15.20;46.20;;;;;;4917754;29;20406;-85
2023/03/02 12:02:35;;;;;;;9.20;8.23;;;15.10;47.80;;;;;;4917658;29;20886;-84
2023/03/02 12:05:05;;;;;;;9.47;8.67;;;15.20;46.30;;;;;;4900355;29;20420;-84
2023/03/02 12:07:31;;;;;;;7.90;7.10;;;15.10;45.90;;;;;;4916532;29;20472;-84
2023/03/02 12:10:19;;;;;;;7.90;7.10;;;15.10;46.60;;;;;;4916537;29;20424;-84
2023/03/02 12:13:01;;;;;;;8.20;7.23;;;14.90;45.70;;;;;;4916501;29;20195;-84
2023/03/02 12:15:44;;;;;;;7.47;6.80;;;15.10;46.70;;;;;;4916795;29;20412;-85
2023/03/02 12:18:22;;;;;;;9.13;8.30;;;14.90;46.40;;;;;;4917050;29;20456;-84
2023/03/02 12:21:06;;;;;;;7.93;7.20;;;14.80;46.80;;;;;;4915126;29;20418;-85
2023/03/02 12:23:39;;;;;;;7.03;6.43;;;14.90;46.50;;;;;;4916740;29;20408;-85
2023/03/02 12:26:20;;;;;;;8.00;7.30;;;15.00;46.50;;;;;;4915731;29;20415;-85
2023/03/02 12:29:06;;;;;;;8.23;7.43;;;15.00;45.60;;;;;;4916516;29;20494;-84
2023/03/02 12:31:47;;;;;;;7.93;7.10;;;14.60;46.40;;;;;;4916831;29;20759;-85
2023/03/02 12:34:37;;;;;;;8.07;7.37;;;14.60;48.40;;;;;;4917243;29;20490;-84
2023/03/02 12:37:21;;;;;;;7.47;6.63;;;14.60;46.80;;;;;;4897458;29;20445;-84
2023/03/02 12:40:01;;;;;;;7.40;6.70;;;14.00;48.00;;;;;;4915022;29;20509;-84
2023/03/02 12:43:11;;;;;;;7.20;6.53;;;14.20;47.70;;;;;;4915721;29;21095;-84
2023/03/02 12:46:13;;;;;;;6.80;6.20;;;13.70;45.30;;;;;;4861210;29;20963;-84
2023/03/02 12:48:47;;;;;;;7.70;7.00;;;13.80;48.60;;;;;;4909950;29;20465;-87
2023/03/02 12:51:20;;;;;;;7.80;7.00;;;13.80;46.80;;;;;;4915550;29;20422;-84
2023/03/02 12:54:00;;;;;;;7.50;6.90;;;13.80;47.00;;;;;;4915812;29;20398;-84
2023/03/02 12:56:26;;;;;;;8.57;7.77;;;13.80;46.90;;;;;;4916240;29;20410;-84
2023/03/02 12:58:53;;;;;;;7.60;6.80;;;13.90;47.00;;;;;;4914758;29;20864;-84
2023/03/02 13:01:25;;;;;;;6.90;6.30;;;13.90;47.70;;;;;;4916352;29;20460;-84
2023/03/02 13:03:52;;;;;;;6.30;5.73;;;14.00;49.50;;;;;;4914676;29;20784;-84